< Typhoon 201801 2018 Season Typhoon 201803 >
Typhoon 201802 (SANBA)
General InformationTrack Information on Google MapsDetailed Wind InformationForecast History on Google MapsAccess Analytics MapList of All Images || NewsDisaster Info.WeblogTrackbackTyphoon FrontTwiphoonTyphoon Now!Typhoon ImaginationJMA Disaster Info. XMLResourceGoogle EarthGE AnimationAtom FeedGeoJSON
Detalied Best Track (Time Zone = UTC)
Year Month Day Hour Lat. Long. Pressure (hPa) Wind (kt) Class Image Chart
2018 2 8 00 8.1 150.8 1006 0 2 Image Chart
2018 2 8 06 9.1 150.1 1004 0 2 Image Chart
2018 2 8 12 10.8 149.8 1006 0 2 Image Chart
2018 2 8 18 11.0 148.6 1004 0 2 Image Chart
2018 2 9 00 10.4 147.4 1006 0 2 Image Chart
2018 2 9 06 10.1 146.9 1004 0 2 Image Chart
2018 2 9 12 9.4 146.0 1008 0 2 Image Chart
2018 2 9 18 9.1 145.0 1006 0 2 Image Chart
2018 2 10 00 8.5 143.3 1008 0 2 Image Chart
2018 2 10 06 7.8 142.3 1004 0 2 Image Chart
2018 2 10 12 6.9 140.8 1004 0 2 Image Chart
2018 2 10 18 6.8 139.0 1002 0 2 Image Chart
2018 2 11 00 6.7 137.4 1002 0 2 Image Chart
2018 2 11 06 6.8 135.8 1000 35 3 Image Chart
2018 2 11 12 7.0 134.4 1000 35 3 Image Chart
2018 2 11 18 7.0 133.1 1000 35 3 Image Chart
2018 2 12 00 7.1 131.9 1000 35 3 Image Chart
2018 2 12 06 7.2 130.7 1000 35 3 Image Chart
2018 2 12 12 7.7 129.3 1000 35 3 Image Chart
2018 2 12 18 8.4 128.0 1000 35 3 Image Chart
2018 2 13 00 9.4 126.4 1002 35 3 Image Chart
2018 2 13 06 9.6 124.6 1006 0 2 Image Chart
2018 2 13 12 9.1 123.9 1008 0 2 Image Chart
2018 2 13 18 8.6 122.0 1008 0 2 Image Chart
2018 2 14 00 7.2 120.5 1008 0 2 Image Chart
2018 2 14 06 6.5 119.9 1008 0 2 Image Chart
2018 2 14 12 6.7 120.0 1010 0 2 Image Chart
2018 2 14 18 7.2 120.0 1008 0 2 Image Chart
2018 2 15 00 8.1 119.4 1010 0 2 Image Chart
2018 2 15 06 8.7 119.2 1008 0 2 Image Chart
2018 2 15 12 8.9 118.5 1010 0 2 Image Chart
2018 2 15 18 9.4 117.7 1010 0 2 Image Chart
2018 2 16 00 10.0 116.1 1012 0 2 Image Chart
2018 2 16 06 9.8 115.7 1010 0 2 Image Chart
Japan Meteorological Agency Best Track Data | Correction Date : 2018-03-22
< Typhoon 201801 2018 Season Typhoon 201803 >

Help